ASN logo
ASN Wikibase Occurrence # 202345
Last updated: 1 May 2020
This information is added by users of ASN. Neither ASN nor the Flight Safety Foundation are responsible for the completeness or correctness of this information. If you feel this information is incomplete or incorrect, you can submit corrected information.

Date:30-NOV-2017
Time:05:56 LT
Type:Silhouette image of generic A320 model; specific model in this crash may look slightly different
Airbus A320-216
Owner/operator:AirAsia
Registration: 9M-AHM
C/n / msn: 3536
Fatalities:Fatalities: 0 / Occupants: 4
Other fatalities:0
Aircraft damage: Unknown
Location:Subang-Sultan Abdul Aziz Shah Airport (SZB/WMSA) -   Malaysia
Phase: Landing
Nature:Training
Departure airport:Kuala Lumpur International Airport (KUL)
Destination airport:Subang-Sultan Abdul Aziz Shah Airport (SZB/WMSA)
Narrative:
AirAsia flight AK9700, a training flight out of Kuala Lumpur International Airport, suffered a runway excursion incident after touchdown on runway 15 at Subang-Sultan Abdul Aziz Shah Airport, Malaysia.
LDA for runway 15 at SZB is 3,780 m (12,402 ft).

Weather reported about the time of the incident (05:56LT / 21:56Z, 29 Nov.):
WMSA 292200Z 32005KT 280V010 7000 -RA FEW005 SCT140 BKN260 24/23 Q1007
WMSA 292100Z 32004KT 260V030 7000 -RA FEW005 SCT140 OVC260 24/23 Q1006

Sources:

https://www.flightradar24.com/data/aircraft/9m-ahm#faefa10


Revision history:

Date/timeContributorUpdates
30-Nov-2017 07:10 harro Added
30-Nov-2017 07:18 harro Updated [Time, Embed code, Narrative]
30-Nov-2017 18:56 Anon. Updated [Narrative]

Corrections or additions? ... Edit this accident description